sensor_id;sensor_type;location;lat;lon;timestamp;P1;durP1;ratioP1;P2;durP2;ratioP2
74791;SDS011;63319;46.046;17.802;2022-09-13T06:08:30;4.68;;;1.48;;
74791;SDS011;63319;46.046;17.802;2022-09-13T06:11:35;3.58;;;1.95;;
74791;SDS011;63319;46.046;17.802;2022-09-13T06:14:38;6.20;;;3.03;;
74791;SDS011;63319;46.046;17.802;2022-09-13T06:17:41;6.10;;;3.15;;
74791;SDS011;63319;46.046;17.802;2022-09-13T06:20:44;14.93;;;3.73;;
74791;SDS011;63319;46.046;17.802;2022-09-13T06:23:49;6.97;;;3.47;;
74791;SDS011;63319;46.046;17.802;2022-09-13T06:26:53;7.55;;;3.40;;
74791;SDS011;63319;46.046;17.802;2022-09-13T06:29:56;12.30;;;4.82;;
74791;SDS011;63319;46.046;17.802;2022-09-13T06:32:59;13.35;;;5.50;;
74791;SDS011;63319;46.046;17.802;2022-09-13T06:36:03;12.33;;;5.07;;
74791;SDS011;63319;46.046;17.802;2022-09-13T06:39:08;12.68;;;6.05;;
74791;SDS011;63319;46.046;17.802;2022-09-13T06:42:11;20.80;;;6.97;;
74791;SDS011;63319;46.046;17.802;2022-09-13T06:45:14;12.02;;;5.75;;
74791;SDS011;63319;46.046;17.802;2022-09-13T06:48:18;17.67;;;5.10;;
74791;SDS011;63319;46.046;17.802;2022-09-13T06:51:22;7.00;;;3.67;;
74791;SDS011;63319;46.046;17.802;2022-09-13T06:54:26;10.88;;;3.47;;
74791;SDS011;63319;46.046;17.802;2022-09-13T06:57:29;7.95;;;3.33;;
74791;SDS011;63319;46.046;17.802;2022-09-13T07:00:32;8.30;;;3.30;;
74791;SDS011;63319;46.046;17.802;2022-09-13T07:03:39;8.18;;;3.38;;
74791;SDS011;63319;46.046;17.802;2022-09-13T07:06:52;6.80;;;3.03;;
74791;SDS011;63319;46.046;17.802;2022-09-13T07:09:56;6.35;;;3.13;;
74791;SDS011;63319;46.046;17.802;2022-09-13T07:12:58;6.95;;;2.90;;
74791;SDS011;63319;46.046;17.802;2022-09-13T07:16:02;8.38;;;3.22;;
74791;SDS011;63319;46.046;17.802;2022-09-13T07:19:11;8.00;;;3.13;;
74791;SDS011;63319;46.046;17.802;2022-09-13T07:22:16;5.37;;;2.80;;
74791;SDS011;63319;46.046;17.802;2022-09-13T07:25:19;6.55;;;3.05;;
74791;SDS011;63319;46.046;17.802;2022-09-13T07:28:41;6.38;;;2.55;;
74791;SDS011;63319;46.046;17.802;2022-09-13T07:51:47;4.70;;;2.17;;
74791;SDS011;63319;46.046;17.802;2022-09-13T07:54:52;4.43;;;2.33;;
74791;SDS011;63319;46.046;17.802;2022-09-13T07:57:55;5.53;;;2.22;;
74791;SDS011;63319;46.046;17.802;2022-09-13T08:01:03;6.10;;;2.30;;
74791;SDS011;63319;46.046;17.802;2022-09-13T08:04:27;5.18;;;2.20;;
74791;SDS011;63319;46.046;17.802;2022-09-13T08:07:34;5.63;;;2.17;;
74791;SDS011;63319;46.046;17.802;2022-09-13T08:10:38;5.25;;;2.00;;
74791;SDS011;63319;46.046;17.802;2022-09-13T08:13:40;5.78;;;2.58;;
74791;SDS011;63319;46.046;17.802;2022-09-13T08:16:44;5.60;;;2.23;;
74791;SDS011;63319;46.046;17.802;2022-09-13T08:19:47;6.68;;;2.00;;
74791;SDS011;63319;46.046;17.802;2022-09-13T08:22:50;5.22;;;2.20;;
74791;SDS011;63319;46.046;17.802;2022-09-13T08:25:53;5.60;;;2.38;;
74791;SDS011;63319;46.046;17.802;2022-09-13T08:28:57;6.95;;;2.35;;
74791;SDS011;63319;46.046;17.802;2022-09-13T08:32:01;4.80;;;2.03;;
74791;SDS011;63319;46.046;17.802;2022-09-13T08:35:04;7.25;;;2.28;;
74791;SDS011;63319;46.046;17.802;2022-09-13T08:38:07;8.38;;;1.92;;
74791;SDS011;63319;46.046;17.802;2022-09-13T08:44:27;4.03;;;2.05;;
74791;SDS011;63319;46.046;17.802;2022-09-13T08:51:01;8.77;;;2.10;;
74791;SDS011;63319;46.046;17.802;2022-09-13T08:54:10;5.93;;;2.00;;
74791;SDS011;63319;46.046;17.802;2022-09-13T08:57:16;5.07;;;2.40;;
74791;SDS011;63319;46.046;17.802;2022-09-13T09:00:29;9.70;;;2.33;;
74791;SDS011;63319;46.046;17.802;2022-09-13T09:03:41;5.63;;;2.43;;
74791;SDS011;63319;46.046;17.802;2022-09-13T09:06:48;6.22;;;2.05;;
74791;SDS011;63319;46.046;17.802;2022-09-13T09:09:53;5.22;;;2.30;;
74791;SDS011;63319;46.046;17.802;2022-09-13T09:13:11;6.45;;;2.20;;
74791;SDS011;63319;46.046;17.802;2022-09-13T09:16:26;4.80;;;2.33;;
74791;SDS011;63319;46.046;17.802;2022-09-13T09:19:41;5.23;;;2.00;;
74791;SDS011;63319;46.046;17.802;2022-09-13T09:22:52;4.13;;;1.65;;
74791;SDS011;63319;46.046;17.802;2022-09-13T09:25:59;7.68;;;1.90;;
74791;SDS011;63319;46.046;17.802;2022-09-13T09:29:21;4.60;;;2.00;;
74791;SDS011;63319;46.046;17.802;2022-09-13T09:35:58;5.77;;;2.23;;
74791;SDS011;63319;46.046;17.802;2022-09-13T09:39:08;6.18;;;1.90;;
74791;SDS011;63319;46.046;17.802;2022-09-13T09:42:15;5.05;;;2.33;;
74791;SDS011;63319;46.046;17.802;2022-09-13T09:48:38;9.18;;;2.33;;
74791;SDS011;63319;46.046;17.802;2022-09-13T09:51:46;3.33;;;1.53;;
74791;SDS011;63319;46.046;17.802;2022-09-13T09:54:50;8.63;;;2.20;;
74791;SDS011;63319;46.046;17.802;2022-09-13T09:57:54;5.38;;;2.10;;
74791;SDS011;63319;46.046;17.802;2022-09-13T10:04:30;5.00;;;2.28;;
74791;SDS011;63319;46.046;17.802;2022-09-13T10:07:34;4.40;;;2.03;;
74791;SDS011;63319;46.046;17.802;2022-09-13T10:10:43;4.72;;;1.98;;
74791;SDS011;63319;46.046;17.802;2022-09-13T10:13:59;4.10;;;2.13;;
74791;SDS011;63319;46.046;17.802;2022-09-13T10:20:22;6.90;;;2.42;;
74791;SDS011;63319;46.046;17.802;2022-09-13T10:23:28;4.67;;;1.60;;
74791;SDS011;63319;46.046;17.802;2022-09-13T10:26:32;3.53;;;1.80;;
74791;SDS011;63319;46.046;17.802;2022-09-13T10:29:35;4.68;;;2.08;;
74791;SDS011;63319;46.046;17.802;2022-09-13T10:32:38;27.05;;;3.30;;
74791;SDS011;63319;46.046;17.802;2022-09-13T10:35:46;12.85;;;2.20;;
74791;SDS011;63319;46.046;17.802;2022-09-13T10:39:05;12.57;;;2.00;;
74791;SDS011;63319;46.046;17.802;2022-09-13T10:42:14;11.65;;;2.05;;
74791;SDS011;63319;46.046;17.802;2022-09-13T10:45:25;5.65;;;1.77;;
74791;SDS011;63319;46.046;17.802;2022-09-13T10:48:42;8.32;;;1.42;;
74791;SDS011;63319;46.046;17.802;2022-09-13T10:51:47;3.45;;;1.70;;
74791;SDS011;63319;46.046;17.802;2022-09-13T10:54:50;3.93;;;1.67;;
74791;SDS011;63319;46.046;17.802;2022-09-13T10:57:54;5.53;;;1.60;;
74791;SDS011;63319;46.046;17.802;2022-09-13T11:01:30;7.20;;;1.95;;
74791;SDS011;63319;46.046;17.802;2022-09-13T11:11:56;4.90;;;1.60;;
74791;SDS011;63319;46.046;17.802;2022-09-13T11:22:17;3.80;;;1.65;;
74791;SDS011;63319;46.046;17.802;2022-09-13T11:32:51;3.33;;;1.30;;
74791;SDS011;63319;46.046;17.802;2022-09-13T11:56:56;6.18;;;2.15;;
